Impacts METAR Board
IDs:

KATL - Atlanta/Hartsfield-J, GA, US

Updated at: 1100 UTC 07 Jul 2020
Potential Impact None Slight Moderate High
Time 06/23Z 07/00Z 07/01Z 07/02Z 07/03Z 07/04Z 07/05Z 07/06Z 07/07Z 07/08Z 07/09Z 07/10Z 07/11Z
Temp73 74 74 74 74 74 73 74 74 74 74 74 74
Dewpt71 71 71 71 71 71 70 70 70 70 70 70 69
Altim29.99 29.99 30.00 30.01 30.01 30.01 30.00 30.00 29.99 29.98 29.98 29.99 29.99
VIS1.5 7 7 7 10 10 10 10 10 10 8 10 10
CIG28 8 8 7 5 15 70 5 19 6 6 8 7
CoverOVCOVCOVCOVCOVCBKNBKNOVCOVCBKNOVCOVCBKN
FltCatIFRIFRIFRIFRIFRMVFRVFRIFRMVFRIFRIFRIFRIFR
WXTSRA BR-RA-RA---------------DZ----
WDir1109080907010090506030102040
WSpd7 9 10 7 6 8 4 7 7 7 7 7 6
WGst14 -- -- -- -- -- -- -- -- -- -- -- --
Raw hourly METARs
KATL 062302Z 11007G14KT 1 1/2SM TSRA BR OVC028CB 23/22 A2999 RMK AO2 LTG DSNT SW P0009 T02280217
KATL 062352Z COR 09009KT 7SM -RA BKN008 BKN060 OVC085 23/22 A2999 RMK AO2 LTG DSNT SW SLP147 TSE23 DSPTD CB DSNT SW P0022 60104 T02330217 10306 20228 51009
KATL 070101Z 08010KT 7SM -RA OVC008 23/22 A3000 RMK AO2 P0002 T02330217
KATL 070152Z 09007KT 7SM OVC007 23/22 A3001 RMK AO2 RAE49 SLP152 P0008 T02330217
KATL 070252Z 07006KT 10SM OVC005 23/22 A3001 RMK AO2 SLP154 60017 T02330217 53007
KATL 070352Z 10008KT 10SM FEW007 BKN015 23/22 A3001 RMK AO2 SLP153 T02330217
KATL 070501Z COR 09004KT 10SM SCT006 SCT025 BKN070 23/21 A3000 RMK AO2 T02280211
KATL 070552Z 05007KT 10SM BKN005 OVC010 23/21 A3000 RMK AO2 SLP147 CIG 004V007 60017 T02330211 10233 20228 58006
KATL 070652Z 06007KT 10SM SCT005 OVC019 23/21 A2999 RMK AO2 SLP143 BINOVC T02330211
KATL 070752Z 03007KT 10SM BKN006 BKN015 BKN022 23/21 A2998 RMK AO2 SLP140 T02330211
KATL 070852Z 01007KT 8SM -DZ OVC006 23/21 A2998 RMK AO2 DZB50 SLP140 P0000 60000 T02330211 56005
KATL 070952Z 02007KT 10SM BKN008 OVC011 23/21 A2999 RMK AO2 DZE47 SLP143 P0000 T02330211
KATL 071052Z 04006KT 10SM BKN007 BKN011TCU BKN020 23/21 A2999 RMK AO2 SLP148 TCU E T02330206



Page loaded:  11:50 UTC  |   04:50 AM Pacific  |   05:50 AM Mountain  |   06:50 AM Central  |   07:50 AM Eastern

 

ADVISORIES

FORECASTS

FORECASTS

OBSERVATIONS

USER TOOLS

ABOUT US